createdAt,value
2022-10-09T00:12:56.495Z,6.2
2022-10-09T00:27:28.560Z,5.9
2022-10-09T00:42:00.595Z,6.3
2022-10-09T00:56:31.951Z,6.1
2022-10-09T01:11:04.329Z,5.8
2022-10-09T01:25:34.342Z,5.9
2022-10-09T01:40:07.028Z,6
2022-10-09T01:54:39.876Z,5.7
2022-10-09T02:09:10.766Z,5.7
2022-10-09T02:23:43.432Z,5.7
2022-10-09T02:38:16.180Z,5.5
2022-10-09T02:52:49.418Z,5.2
2022-10-09T03:07:20.141Z,5.4
2022-10-09T03:21:52.216Z,4.9
2022-10-09T03:36:24.140Z,5.1
2022-10-09T03:50:56.522Z,4.8
2022-10-09T04:05:29.269Z,4.8
2022-10-09T04:20:00.874Z,4.6
2022-10-09T04:34:34.252Z,4.8
2022-10-09T04:49:04.232Z,4.7
2022-10-09T05:03:36.938Z,4.7
2022-10-09T05:18:09.458Z,4.8
2022-10-09T05:32:42.631Z,5.1
2022-10-09T05:47:14.654Z,4.6
2022-10-09T06:01:47.339Z,4.8
2022-10-09T06:16:18.851Z,4.8
2022-10-09T06:30:51.904Z,5.2
2022-10-09T06:45:25.930Z,5.5
2022-10-09T06:59:59.495Z,6.1
2022-10-09T07:14:31.040Z,6.7
2022-10-09T07:29:04.117Z,7
2022-10-09T07:43:39.157Z,7.6
2022-10-09T07:58:13.184Z,8.4
2022-10-09T08:12:50.933Z,10.3
2022-10-09T08:27:34.583Z,9.5
2022-10-09T08:42:07.409Z,9.5
2022-10-09T08:56:37.570Z,9.4
2022-10-09T09:11:22.318Z,9.6
2022-10-09T09:25:56.096Z,9.1
2022-10-09T09:40:47.370Z,8.6
2022-10-09T09:55:06.513Z,8.5
2022-10-09T10:09:39.407Z,9.1
2022-10-09T10:24:12.952Z,9.4
2022-10-09T10:38:47.761Z,8.7
2022-10-09T10:53:22.209Z,8.7
2022-10-09T11:08:00.730Z,8.4
2022-10-09T11:22:30.024Z,8
2022-10-09T11:37:00.930Z,8.7
2022-10-09T11:51:33.197Z,7.5
2022-10-09T12:06:06.757Z,7.8
2022-10-09T12:20:40.005Z,6.6
2022-10-09T12:35:14.058Z,6.4
2022-10-09T12:49:46.751Z,6.7
2022-10-09T13:04:20.249Z,5.9
2022-10-09T13:18:53.533Z,5.9
2022-10-09T13:33:27.012Z,6.3
2022-10-09T13:47:59.554Z,6.3
2022-10-09T14:02:30.581Z,6.4
2022-10-09T14:17:02.588Z,6.1
2022-10-09T14:31:35.758Z,6.4
2022-10-09T14:46:08.332Z,7
2022-10-09T15:00:40.421Z,7.2
2022-10-09T15:15:14.846Z,6.8
2022-10-09T15:29:46.779Z,6.8
2022-10-09T15:44:18.828Z,7.1
2022-10-09T15:58:50.682Z,7.3
2022-10-09T16:13:22.817Z,7.3
2022-10-09T16:27:55.338Z,7
2022-10-09T16:42:26.902Z,6.6
2022-10-09T16:56:57.523Z,6.7
2022-10-09T17:11:28.611Z,6.9
2022-10-09T17:26:00.740Z,6.8
2022-10-09T17:40:32.512Z,6.9
2022-10-09T17:55:02.374Z,7
2022-10-09T18:09:33.367Z,6.8
2022-10-09T18:24:05.813Z,6.8
2022-10-09T18:38:36.959Z,6.8
2022-10-09T18:53:08.817Z,6.7
2022-10-09T19:07:40.912Z,6.4
2022-10-09T19:22:24.302Z,6.5
2022-10-09T19:36:50.392Z,6.4
2022-10-09T19:51:22.398Z,6.4
2022-10-09T20:05:57.084Z,6.4
2022-10-09T20:20:28.883Z,6.2
2022-10-09T20:35:01.688Z,6.2
2022-10-09T20:49:32.164Z,6.3
2022-10-09T21:04:04.259Z,6.5
2022-10-09T21:18:36.422Z,6.4
2022-10-09T21:33:09.452Z,6.4
2022-10-09T21:47:42.133Z,6.4
2022-10-09T22:02:14.123Z,6.4
2022-10-09T22:16:47.600Z,6.4
2022-10-09T22:31:19.988Z,6.3
2022-10-09T22:45:52.020Z,6.2
2022-10-09T23:00:24.719Z,6.1
2022-10-09T23:14:56.866Z,6.2
2022-10-09T23:29:28.360Z,6.3
2022-10-09T23:44:00.505Z,6.6
2022-10-09T23:58:32.582Z,6.8
